sensor_id;sensor_type;location;lat;lon;timestamp;pressure;altitude;pressure_sealevel;temperature;humidity
13765;BME280;6953;48.810;9.204;2024-01-15T00:02:19;97782.41;;;1.51;77.64
13765;BME280;6953;48.810;9.204;2024-01-15T00:04:45;97775.13;;;1.36;78.54
13765;BME280;6953;48.810;9.204;2024-01-15T00:07:10;97808.47;;;1.16;78.99
13765;BME280;6953;48.810;9.204;2024-01-15T00:09:36;97774.72;;;0.93;80.10
13765;BME280;6953;48.810;9.204;2024-01-15T00:12:01;97519.38;;;-0.79;80.64
13765;BME280;6953;48.810;9.204;2024-01-15T00:14:27;97748.59;;;0.47;81.55
13765;BME280;6953;48.810;9.204;2024-01-15T00:16:53;97769.44;;;0.40;82.38
13765;BME280;6953;48.810;9.204;2024-01-15T00:19:21;97512.03;;;-1.22;83.38
13765;BME280;6953;48.810;9.204;2024-01-15T00:21:46;97750.66;;;0.04;83.74
13765;BME280;6953;48.810;9.204;2024-01-15T00:24:12;97824.44;;;0.08;84.16
13765;BME280;6953;48.810;9.204;2024-01-15T00:26:39;97767.09;;;0.00;85.61
13765;BME280;6953;48.810;9.204;2024-01-15T00:29:06;97762.94;;;-0.05;85.75
13765;BME280;6953;48.810;9.204;2024-01-15T00:31:32;97750.34;;;-0.17;86.11
13765;BME280;6953;48.810;9.204;2024-01-15T00:33:57;97565.56;;;-1.38;86.12
13765;BME280;6953;48.810;9.204;2024-01-15T00:36:23;97639.25;;;-1.02;86.44
13765;BME280;6953;48.810;9.204;2024-01-15T00:38:48;97758.06;;;-0.49;87.10
13765;BME280;6953;48.810;9.204;2024-01-15T00:41:14;97751.78;;;-0.72;87.51
13765;BME280;6953;48.810;9.204;2024-01-15T00:43:41;97455.88;;;-2.43;88.12
13765;BME280;6953;48.810;9.204;2024-01-15T00:46:06;97493.91;;;-2.22;88.66
13765;BME280;6953;48.810;9.204;2024-01-15T00:48:32;97781.06;;;-0.78;89.08
13765;BME280;6953;48.810;9.204;2024-01-15T00:50:57;97457.03;;;-2.56;89.53
13765;BME280;6953;48.810;9.204;2024-01-15T00:53:23;97788.09;;;-0.84;89.55
13765;BME280;6953;48.810;9.204;2024-01-15T00:55:48;97703.97;;;-1.18;89.93
13765;BME280;6953;48.810;9.204;2024-01-15T00:58:14;97747.97;;;-0.93;90.17
13765;BME280;6953;48.810;9.204;2024-01-15T01:00:39;97737.75;;;-0.96;90.59
13765;BME280;6953;48.810;9.204;2024-01-15T01:03:04;97748.72;;;-0.89;90.28
13765;BME280;6953;48.810;9.204;2024-01-15T01:05:29;97753.94;;;-0.91;90.46
13765;BME280;6953;48.810;9.204;2024-01-15T01:07:55;97633.41;;;-1.43;90.26
13765;BME280;6953;48.810;9.204;2024-01-15T01:10:20;97753.28;;;-0.64;91.05
13765;BME280;6953;48.810;9.204;2024-01-15T01:12:45;97751.88;;;-0.42;90.90
13765;BME280;6953;48.810;9.204;2024-01-15T01:15:11;97518.06;;;-1.58;90.04
13765;BME280;6953;48.810;9.204;2024-01-15T01:17:36;97749.59;;;0.11;89.62
13765;BME280;6953;48.810;9.204;2024-01-15T01:20:01;97742.06;;;0.34;88.68
13765;BME280;6953;48.810;9.204;2024-01-15T01:22:29;97649.41;;;-0.01;88.04
13765;BME280;6953;48.810;9.204;2024-01-15T01:24:55;97736.78;;;0.68;87.44
13765;BME280;6953;48.810;9.204;2024-01-15T01:27:20;97736.53;;;0.77;86.72
13765;BME280;6953;48.810;9.204;2024-01-15T01:29:45;97742.28;;;0.86;86.56
13765;BME280;6953;48.810;9.204;2024-01-15T01:32:11;97684.59;;;0.60;86.18
13765;BME280;6953;48.810;9.204;2024-01-15T01:34:40;97695.59;;;0.92;85.80
13765;BME280;6953;48.810;9.204;2024-01-15T01:37:09;97530.78;;;0.01;85.19
13765;BME280;6953;48.810;9.204;2024-01-15T01:39:35;97722.22;;;1.21;85.23
13765;BME280;6953;48.810;9.204;2024-01-15T01:42:00;97528.59;;;0.16;84.83
13765;BME280;6953;48.810;9.204;2024-01-15T01:44:26;97740.28;;;1.49;84.40
13765;BME280;6953;48.810;9.204;2024-01-15T01:46:51;97615.72;;;0.88;84.14
13765;BME280;6953;48.810;9.204;2024-01-15T01:49:17;97732.00;;;1.64;83.69
13765;BME280;6953;48.810;9.204;2024-01-15T01:51:44;97725.84;;;1.68;83.73
13765;BME280;6953;48.810;9.204;2024-01-15T01:54:10;97736.09;;;1.71;83.55
13765;BME280;6953;48.810;9.204;2024-01-15T01:56:39;97727.38;;;1.73;83.02
13765;BME280;6953;48.810;9.204;2024-01-15T01:59:06;97734.28;;;1.73;83.12
13765;BME280;6953;48.810;9.204;2024-01-15T02:01:34;97758.66;;;1.66;83.51
13765;BME280;6953;48.810;9.204;2024-01-15T02:03:59;97729.63;;;1.58;83.39
13765;BME280;6953;48.810;9.204;2024-01-15T02:06:25;97731.47;;;1.54;83.36
13765;BME280;6953;48.810;9.204;2024-01-15T02:08:50;97456.34;;;-0.08;83.20
13765;BME280;6953;48.810;9.204;2024-01-15T02:11:16;97736.78;;;1.50;83.87
13765;BME280;6953;48.810;9.204;2024-01-15T02:13:41;97770.72;;;1.39;83.59
13765;BME280;6953;48.810;9.204;2024-01-15T02:16:07;97734.91;;;1.29;84.30
13765;BME280;6953;48.810;9.204;2024-01-15T02:18:42;97522.22;;;0.00;84.18
13765;BME280;6953;48.810;9.204;2024-01-15T02:21:08;97732.59;;;1.20;84.65
13765;BME280;6953;48.810;9.204;2024-01-15T02:23:33;97446.63;;;-0.55;84.24
13765;BME280;6953;48.810;9.204;2024-01-15T02:25:59;97425.69;;;-0.72;85.14
13765;BME280;6953;48.810;9.204;2024-01-15T02:28:24;97448.44;;;-0.58;85.18
13765;BME280;6953;48.810;9.204;2024-01-15T02:30:49;97718.66;;;0.98;85.42
13765;BME280;6953;48.810;9.204;2024-01-15T02:33:15;97749.28;;;0.81;85.96
13765;BME280;6953;48.810;9.204;2024-01-15T02:35:40;97718.97;;;0.88;86.12
13765;BME280;6953;48.810;9.204;2024-01-15T02:38:06;97424.56;;;-0.92;86.46
13765;BME280;6953;48.810;9.204;2024-01-15T02:40:32;97721.16;;;0.72;86.81
13765;BME280;6953;48.810;9.204;2024-01-15T02:42:57;97715.44;;;0.63;87.09
13765;BME280;6953;48.810;9.204;2024-01-15T02:45:23;97714.03;;;0.53;87.40
13765;BME280;6953;48.810;9.204;2024-01-15T02:47:49;97694.69;;;0.38;88.11
13765;BME280;6953;48.810;9.204;2024-01-15T02:50:14;97683.06;;;0.24;88.29
13765;BME280;6953;48.810;9.204;2024-01-15T02:52:41;97712.00;;;0.33;88.68
13765;BME280;6953;48.810;9.204;2024-01-15T02:55:06;97767.25;;;0.25;89.30
13765;BME280;6953;48.810;9.204;2024-01-15T02:57:32;97714.13;;;0.19;89.33
13765;BME280;6953;48.810;9.204;2024-01-15T02:59:57;97722.03;;;0.13;89.62
13765;BME280;6953;48.810;9.204;2024-01-15T03:02:22;97722.03;;;0.13;90.56
13765;BME280;6953;48.810;9.204;2024-01-15T03:04:48;97420.38;;;-1.57;90.10
13765;BME280;6953;48.810;9.204;2024-01-15T03:07:13;97698.88;;;0.12;90.12
13765;BME280;6953;48.810;9.204;2024-01-15T03:09:38;97590.94;;;-0.59;90.10
13765;BME280;6953;48.810;9.204;2024-01-15T03:12:04;97659.56;;;-0.25;90.39
13765;BME280;6953;48.810;9.204;2024-01-15T03:14:29;97608.16;;;-0.61;91.20
13765;BME280;6953;48.810;9.204;2024-01-15T03:16:55;97704.34;;;0.01;91.29
13765;BME280;6953;48.810;9.204;2024-01-15T03:19:21;97377.69;;;-1.96;91.10
13765;BME280;6953;48.810;9.204;2024-01-15T03:21:46;97533.63;;;-0.96;91.51
13765;BME280;6953;48.810;9.204;2024-01-15T03:24:11;97373.16;;;-1.86;91.47
13765;BME280;6953;48.810;9.204;2024-01-15T03:26:36;97734.81;;;0.18;91.49
13765;BME280;6953;48.810;9.204;2024-01-15T03:29:02;97651.25;;;-0.05;91.15
13765;BME280;6953;48.810;9.204;2024-01-15T03:31:27;97659.84;;;-0.05;91.13
13765;BME280;6953;48.810;9.204;2024-01-15T03:37:15;97693.34;;;0.25;90.74
13765;BME280;6953;48.810;9.204;2024-01-15T03:39:40;97659.63;;;0.02;90.45
13765;BME280;6953;48.810;9.204;2024-01-15T03:42:06;97570.88;;;-0.47;90.29
13765;BME280;6953;48.810;9.204;2024-01-15T03:44:31;97692.69;;;0.19;90.53
13765;BME280;6953;48.810;9.204;2024-01-15T03:46:56;97706.53;;;0.15;90.76
13765;BME280;6953;48.810;9.204;2024-01-15T03:49:23;97674.22;;;0.02;90.30
13765;BME280;6953;48.810;9.204;2024-01-15T03:51:48;97686.81;;;0.12;90.96
13765;BME280;6953;48.810;9.204;2024-01-15T03:54:13;97683.78;;;0.29;91.02
13765;BME280;6953;48.810;9.204;2024-01-15T03:56:38;97650.72;;;0.12;90.95
13765;BME280;6953;48.810;9.204;2024-01-15T03:59:04;97681.78;;;0.67;90.43
13765;BME280;6953;48.810;9.204;2024-01-15T04:01:29;97670.09;;;0.83;89.54
13765;BME280;6953;48.810;9.204;2024-01-15T04:03:54;97617.28;;;0.66;89.41
13765;BME280;6953;48.810;9.204;2024-01-15T04:06:20;97669.22;;;1.10;88.50
13765;BME280;6953;48.810;9.204;2024-01-15T04:08:45;97671.56;;;1.17;88.20
13765;BME280;6953;48.810;9.204;2024-01-15T04:11:10;97681.31;;;1.34;87.85
13765;BME280;6953;48.810;9.204;2024-01-15T04:13:35;97650.19;;;1.38;87.36
13765;BME280;6953;48.810;9.204;2024-01-15T04:16:01;97693.50;;;1.56;87.07
13765;BME280;6953;48.810;9.204;2024-01-15T04:18:26;97367.78;;;-0.05;86.40
13765;BME280;6953;48.810;9.204;2024-01-15T04:20:51;97679.25;;;1.69;86.45
13765;BME280;6953;48.810;9.204;2024-01-15T04:23:16;97698.03;;;1.74;85.85
13765;BME280;6953;48.810;9.204;2024-01-15T04:25:42;97638.53;;;1.76;85.35
13765;BME280;6953;48.810;9.204;2024-01-15T04:28:08;97675.00;;;1.93;85.30
13765;BME280;6953;48.810;9.204;2024-01-15T04:30:34;97357.25;;;0.26;84.40
13765;BME280;6953;48.810;9.204;2024-01-15T04:32:59;97638.16;;;2.09;83.67
13765;BME280;6953;48.810;9.204;2024-01-15T04:35:25;97641.44;;;2.14;83.19
13765;BME280;6953;48.810;9.204;2024-01-15T04:37:50;97641.94;;;2.23;83.14
13765;BME280;6953;48.810;9.204;2024-01-15T04:40:15;97670.13;;;2.31;82.35
13765;BME280;6953;48.810;9.204;2024-01-15T04:42:40;97636.19;;;2.38;81.72
13765;BME280;6953;48.810;9.204;2024-01-15T04:45:06;97681.72;;;2.44;80.71
13765;BME280;6953;48.810;9.204;2024-01-15T04:47:31;97629.09;;;2.43;80.95
13765;BME280;6953;48.810;9.204;2024-01-15T04:49:56;97667.53;;;2.54;80.55
13765;BME280;6953;48.810;9.204;2024-01-15T04:52:22;97443.66;;;1.35;80.11
13765;BME280;6953;48.810;9.204;2024-01-15T04:54:47;97643.81;;;2.64;79.64
13765;BME280;6953;48.810;9.204;2024-01-15T04:57:12;97364.78;;;1.04;80.19
13765;BME280;6953;48.810;9.204;2024-01-15T04:59:37;97611.38;;;2.56;79.93
13765;BME280;6953;48.810;9.204;2024-01-15T05:02:03;97629.75;;;2.71;79.64
13765;BME280;6953;48.810;9.204;2024-01-15T05:04:28;97553.69;;;2.09;79.95
13765;BME280;6953;48.810;9.204;2024-01-15T05:06:54;97373.59;;;1.21;79.81
13765;BME280;6953;48.810;9.204;2024-01-15T05:09:20;97640.09;;;2.71;80.04
13765;BME280;6953;48.810;9.204;2024-01-15T05:11:45;97640.03;;;2.73;79.66
13765;BME280;6953;48.810;9.204;2024-01-15T05:14:10;97426.09;;;1.43;79.75
13765;BME280;6953;48.810;9.204;2024-01-15T05:16:38;97641.72;;;2.74;80.20
13765;BME280;6953;48.810;9.204;2024-01-15T05:19:03;97640.00;;;2.74;80.30
13765;BME280;6953;48.810;9.204;2024-01-15T05:21:29;97646.72;;;2.78;79.81
13765;BME280;6953;48.810;9.204;2024-01-15T05:23:54;97650.94;;;2.81;79.98
13765;BME280;6953;48.810;9.204;2024-01-15T05:26:19;97626.75;;;2.82;79.59
13765;BME280;6953;48.810;9.204;2024-01-15T05:28:44;97543.94;;;2.37;79.74
13765;BME280;6953;48.810;9.204;2024-01-15T05:31:10;97616.28;;;2.85;79.41
13765;BME280;6953;48.810;9.204;2024-01-15T05:33:36;97599.41;;;2.75;79.58
13765;BME280;6953;48.810;9.204;2024-01-15T05:36:02;97628.28;;;2.86;79.46
13765;BME280;6953;48.810;9.204;2024-01-15T05:38:27;97613.69;;;2.85;79.59
13765;BME280;6953;48.810;9.204;2024-01-15T05:40:53;97625.69;;;2.86;79.67
13765;BME280;6953;48.810;9.204;2024-01-15T05:43:18;97635.16;;;2.87;79.54
13765;BME280;6953;48.810;9.204;2024-01-15T05:45:43;97610.16;;;2.86;79.92
13765;BME280;6953;48.810;9.204;2024-01-15T05:48:10;97593.13;;;2.80;79.14
13765;BME280;6953;48.810;9.204;2024-01-15T05:50:35;97623.97;;;2.86;79.22
13765;BME280;6953;48.810;9.204;2024-01-15T05:53:00;97402.28;;;1.58;79.21
13765;BME280;6953;48.810;9.204;2024-01-15T05:55:26;97653.25;;;2.88;80.09
13765;BME280;6953;48.810;9.204;2024-01-15T05:57:51;97611.09;;;2.85;78.83
13765;BME280;6953;48.810;9.204;2024-01-15T06:00:16;97620.59;;;2.84;79.16
13765;BME280;6953;48.810;9.204;2024-01-15T06:02:42;97354.97;;;1.35;78.41
13765;BME280;6953;48.810;9.204;2024-01-15T06:05:07;97534.22;;;2.44;79.09
13765;BME280;6953;48.810;9.204;2024-01-15T06:07:35;97551.91;;;2.54;78.42
13765;BME280;6953;48.810;9.204;2024-01-15T06:10:03;97600.59;;;2.88;78.67
13765;BME280;6953;48.810;9.204;2024-01-15T06:12:30;97608.97;;;2.94;78.81
13765;BME280;6953;48.810;9.204;2024-01-15T06:14:55;97612.47;;;2.93;78.74
13765;BME280;6953;48.810;9.204;2024-01-15T06:17:20;97628.00;;;2.93;78.66
13765;BME280;6953;48.810;9.204;2024-01-15T06:19:45;97624.56;;;2.93;78.77
13765;BME280;6953;48.810;9.204;2024-01-15T06:22:11;97612.47;;;2.93;78.97
13765;BME280;6953;48.810;9.204;2024-01-15T06:24:36;97327.72;;;1.28;78.84
13765;BME280;6953;48.810;9.204;2024-01-15T06:27:01;97584.88;;;2.71;78.90
13765;BME280;6953;48.810;9.204;2024-01-15T06:29:28;97603.84;;;2.93;78.83
13765;BME280;6953;48.810;9.204;2024-01-15T06:31:53;97583.50;;;2.84;78.76
13765;BME280;6953;48.810;9.204;2024-01-15T06:34:18;97399.22;;;1.70;78.38
13765;BME280;6953;48.810;9.204;2024-01-15T06:36:44;97351.06;;;1.46;78.84
13765;BME280;6953;48.810;9.204;2024-01-15T06:39:10;97589.28;;;2.90;79.27
13765;BME280;6953;48.810;9.204;2024-01-15T06:41:35;97389.75;;;1.71;79.29
13765;BME280;6953;48.810;9.204;2024-01-15T06:44:06;97537.78;;;2.63;79.19
13765;BME280;6953;48.810;9.204;2024-01-15T06:46:31;97312.81;;;1.34;78.93
13765;BME280;6953;48.810;9.204;2024-01-15T06:48:57;97570.41;;;2.87;79.12
13765;BME280;6953;48.810;9.204;2024-01-15T06:51:22;97384.50;;;1.72;79.09
13765;BME280;6953;48.810;9.204;2024-01-15T06:53:47;97567.00;;;2.86;79.27
13765;BME280;6953;48.810;9.204;2024-01-15T06:56:13;97571.38;;;2.84;79.35
13765;BME280;6953;48.810;9.204;2024-01-15T06:58:38;97579.09;;;2.86;78.93
13765;BME280;6953;48.810;9.204;2024-01-15T07:01:03;97573.91;;;2.86;79.26
13765;BME280;6953;48.810;9.204;2024-01-15T07:03:29;97567.34;;;2.77;79.36
13765;BME280;6953;48.810;9.204;2024-01-15T07:05:56;97295.19;;;1.22;78.56
13765;BME280;6953;48.810;9.204;2024-01-15T07:08:21;97482.94;;;2.32;79.12
13765;BME280;6953;48.810;9.204;2024-01-15T07:10:47;97522.72;;;2.51;78.90
13765;BME280;6953;48.810;9.204;2024-01-15T07:13:12;97195.44;;;0.56;78.40
13765;BME280;6953;48.810;9.204;2024-01-15T07:15:37;97594.47;;;2.90;78.59
13765;BME280;6953;48.810;9.204;2024-01-15T07:18:03;97327.44;;;1.34;78.45
13765;BME280;6953;48.810;9.204;2024-01-15T07:20:28;97478.19;;;2.21;78.56
13765;BME280;6953;48.810;9.204;2024-01-15T07:22:53;97301.13;;;1.24;78.36
13765;BME280;6953;48.810;9.204;2024-01-15T07:25:19;97342.41;;;1.47;78.15
13765;BME280;6953;48.810;9.204;2024-01-15T07:27:44;97599.91;;;3.04;78.10
13765;BME280;6953;48.810;9.204;2024-01-15T07:30:13;97580.34;;;2.97;77.50
13765;BME280;6953;48.810;9.204;2024-01-15T07:32:38;97614.00;;;2.97;77.48
13765;BME280;6953;48.810;9.204;2024-01-15T07:35:04;97612.75;;;3.07;77.51
13765;BME280;6953;48.810;9.204;2024-01-15T07:37:31;97555.31;;;2.76;76.98
13765;BME280;6953;48.810;9.204;2024-01-15T07:39:56;97532.16;;;2.73;76.78
13765;BME280;6953;48.810;9.204;2024-01-15T07:42:21;97608.94;;;3.15;77.06
13765;BME280;6953;48.810;9.204;2024-01-15T07:44:47;97605.38;;;3.18;76.23
13765;BME280;6953;48.810;9.204;2024-01-15T07:47:12;97604.41;;;3.20;75.61
13765;BME280;6953;48.810;9.204;2024-01-15T07:49:38;97594.09;;;3.19;75.38
13765;BME280;6953;48.810;9.204;2024-01-15T07:52:03;97590.56;;;3.21;74.83
13765;BME280;6953;48.810;9.204;2024-01-15T07:54:31;97445.63;;;2.37;74.84
13765;BME280;6953;48.810;9.204;2024-01-15T07:56:57;97598.56;;;3.15;75.20
13765;BME280;6953;48.810;9.204;2024-01-15T07:59:23;97419.28;;;2.28;74.81
13765;BME280;6953;48.810;9.204;2024-01-15T08:01:48;97597.75;;;3.35;74.52
13765;BME280;6953;48.810;9.204;2024-01-15T08:04:13;97345.75;;;1.94;74.52
13765;BME280;6953;48.810;9.204;2024-01-15T08:06:39;97588.22;;;3.35;74.41
13765;BME280;6953;48.810;9.204;2024-01-15T08:09:04;97396.50;;;2.16;73.93
13765;BME280;6953;48.810;9.204;2024-01-15T08:11:30;97582.47;;;3.29;73.47
13765;BME280;6953;48.810;9.204;2024-01-15T08:13:55;97594.06;;;3.40;73.53
13765;BME280;6953;48.810;9.204;2024-01-15T08:16:21;97469.28;;;2.70;73.44
13765;BME280;6953;48.810;9.204;2024-01-15T08:18:47;97581.88;;;3.42;72.80
13765;BME280;6953;48.810;9.204;2024-01-15T08:21:12;97599.81;;;3.47;72.61
13765;BME280;6953;48.810;9.204;2024-01-15T08:23:37;97607.84;;;3.61;73.10
13765;BME280;6953;48.810;9.204;2024-01-15T08:26:03;97603.19;;;3.49;72.62
13765;BME280;6953;48.810;9.204;2024-01-15T08:28:28;97523.13;;;3.23;72.72
13765;BME280;6953;48.810;9.204;2024-01-15T08:30:54;97463.41;;;2.86;72.10
13765;BME280;6953;48.810;9.204;2024-01-15T08:33:19;97608.56;;;3.84;72.45
13765;BME280;6953;48.810;9.204;2024-01-15T08:35:44;97615.22;;;3.90;71.62
13765;BME280;6953;48.810;9.204;2024-01-15T08:38:10;97368.09;;;2.56;70.86
13765;BME280;6953;48.810;9.204;2024-01-15T08:40:35;97596.34;;;4.06;70.94
13765;BME280;6953;48.810;9.204;2024-01-15T08:43:01;97499.94;;;3.58;70.60
13765;BME280;6953;48.810;9.204;2024-01-15T08:45:27;97589.47;;;4.23;70.16
13765;BME280;6953;48.810;9.204;2024-01-15T08:47:52;97606.31;;;4.33;69.54
13765;BME280;6953;48.810;9.204;2024-01-15T08:50:17;97598.16;;;4.41;69.44
13765;BME280;6953;48.810;9.204;2024-01-15T08:52:44;97603.16;;;4.45;68.75
13765;BME280;6953;48.810;9.204;2024-01-15T08:55:11;97591.56;;;4.34;67.33
13765;BME280;6953;48.810;9.204;2024-01-15T08:57:38;97602.44;;;4.42;67.45
13765;BME280;6953;48.810;9.204;2024-01-15T09:00:03;97603.16;;;4.45;67.50
13765;BME280;6953;48.810;9.204;2024-01-15T09:02:29;97603.38;;;4.41;65.84
13765;BME280;6953;48.810;9.204;2024-01-15T09:04:54;97351.50;;;2.98;65.67
13765;BME280;6953;48.810;9.204;2024-01-15T09:07:19;97350.47;;;3.02;65.77
13765;BME280;6953;48.810;9.204;2024-01-15T09:09:45;97605.94;;;4.59;65.66
13765;BME280;6953;48.810;9.204;2024-01-15T09:12:10;97506.25;;;4.08;64.18
13765;BME280;6953;48.810;9.204;2024-01-15T09:14:35;97603.91;;;4.66;64.19
13765;BME280;6953;48.810;9.204;2024-01-15T09:17:00;97557.81;;;4.34;64.33
13765;BME280;6953;48.810;9.204;2024-01-15T09:19:26;97337.19;;;3.09;64.45
13765;BME280;6953;48.810;9.204;2024-01-15T09:21:52;97347.13;;;3.18;65.31
13765;BME280;6953;48.810;9.204;2024-01-15T09:24:17;97315.28;;;3.16;65.09
13765;BME280;6953;48.810;9.204;2024-01-15T09:26:44;97608.88;;;4.89;65.31
13765;BME280;6953;48.810;9.204;2024-01-15T09:29:10;97375.66;;;3.74;64.39
13765;BME280;6953;48.810;9.204;2024-01-15T09:31:35;97582.19;;;4.85;64.45
13765;BME280;6953;48.810;9.204;2024-01-15T09:34:00;97541.75;;;4.80;64.50
13765;BME280;6953;48.810;9.204;2024-01-15T09:36:27;97577.47;;;5.10;64.11
13765;BME280;6953;48.810;9.204;2024-01-15T09:38:52;97559.44;;;5.07;63.56
13765;BME280;6953;48.810;9.204;2024-01-15T09:41:18;97619.03;;;5.28;63.19
13765;BME280;6953;48.810;9.204;2024-01-15T09:43:43;97608.63;;;5.28;62.43
13765;BME280;6953;48.810;9.204;2024-01-15T09:46:10;97582.78;;;5.42;61.75
13765;BME280;6953;48.810;9.204;2024-01-15T09:48:36;97518.25;;;5.00;61.62
13765;BME280;6953;48.810;9.204;2024-01-15T09:51:02;97609.47;;;5.46;60.36
13765;BME280;6953;48.810;9.204;2024-01-15T09:53:27;97632.34;;;5.39;61.72
13765;BME280;6953;48.810;9.204;2024-01-15T09:55:53;97573.28;;;5.41;61.95
13765;BME280;6953;48.810;9.204;2024-01-15T09:58:19;97501.25;;;4.93;61.31
13765;BME280;6953;48.810;9.204;2024-01-15T10:00:44;97571.75;;;5.37;61.66
13765;BME280;6953;48.810;9.204;2024-01-15T10:03:10;97488.41;;;4.90;61.10
13765;BME280;6953;48.810;9.204;2024-01-15T10:05:37;97555.91;;;5.42;61.28
13765;BME280;6953;48.810;9.204;2024-01-15T10:08:04;97307.19;;;3.95;60.66
13765;BME280;6953;48.810;9.204;2024-01-15T10:10:29;97549.13;;;5.39;61.11
13765;BME280;6953;48.810;9.204;2024-01-15T10:12:58;97543.75;;;5.42;61.09
13765;BME280;6953;48.810;9.204;2024-01-15T10:15:23;97295.81;;;3.97;61.30
13765;BME280;6953;48.810;9.204;2024-01-15T10:17:50;97539.03;;;5.33;60.81
13765;BME280;6953;48.810;9.204;2024-01-15T10:20:15;97341.31;;;4.21;61.05
13765;BME280;6953;48.810;9.204;2024-01-15T10:22:41;97343.75;;;4.24;61.01
13765;BME280;6953;48.810;9.204;2024-01-15T10:25:12;97541.03;;;5.45;60.89
13765;BME280;6953;48.810;9.204;2024-01-15T10:27:38;97459.09;;;5.05;60.76
13765;BME280;6953;48.810;9.204;2024-01-15T10:30:04;97471.66;;;5.29;60.29
13765;BME280;6953;48.810;9.204;2024-01-15T10:32:31;97534.78;;;5.65;60.16
13765;BME280;6953;48.810;9.204;2024-01-15T10:34:57;97393.78;;;4.78;60.12
13765;BME280;6953;48.810;9.204;2024-01-15T10:37:24;97537.50;;;5.46;60.16
13765;BME280;6953;48.810;9.204;2024-01-15T10:39:49;97296.53;;;4.17;60.33
13765;BME280;6953;48.810;9.204;2024-01-15T10:42:14;97481.16;;;5.30;61.15
13765;BME280;6953;48.810;9.204;2024-01-15T10:44:41;97538.16;;;5.67;60.58
13765;BME280;6953;48.810;9.204;2024-01-15T10:47:08;97450.47;;;5.36;60.64
13765;BME280;6953;48.810;9.204;2024-01-15T10:49:34;97497.38;;;5.50;60.37
13765;BME280;6953;48.810;9.204;2024-01-15T10:52:00;97437.03;;;5.28;60.76
13765;BME280;6953;48.810;9.204;2024-01-15T10:54:27;97486.66;;;5.56;60.72
13765;BME280;6953;48.810;9.204;2024-01-15T10:56:52;97217.69;;;4.03;60.92
13765;BME280;6953;48.810;9.204;2024-01-15T10:59:20;97421.09;;;5.34;60.51
13765;BME280;6953;48.810;9.204;2024-01-15T11:01:46;97500.34;;;5.77;60.58
13765;BME280;6953;48.810;9.204;2024-01-15T11:04:12;97465.56;;;5.62;60.42
13765;BME280;6953;48.810;9.204;2024-01-15T11:06:43;97494.34;;;5.92;61.46
13765;BME280;6953;48.810;9.204;2024-01-15T11:09:09;97508.53;;;6.02;61.82
13765;BME280;6953;48.810;9.204;2024-01-15T11:11:36;97453.72;;;5.57;62.10
13765;BME280;6953;48.810;9.204;2024-01-15T11:14:02;97497.72;;;5.77;63.26
13765;BME280;6953;48.810;9.204;2024-01-15T11:16:53;97502.41;;;5.70;64.13
13765;BME280;6953;48.810;9.204;2024-01-15T11:19:19;97485.00;;;5.55;65.47
13765;BME280;6953;48.810;9.204;2024-01-15T11:21:44;97202.59;;;3.77;65.82
13765;BME280;6953;48.810;9.204;2024-01-15T11:24:09;97461.16;;;4.98;67.23
13765;BME280;6953;48.810;9.204;2024-01-15T11:26:44;97403.28;;;4.95;68.45
13765;BME280;6953;48.810;9.204;2024-01-15T11:34:21;97445.66;;;5.29;72.06
13765;BME280;6953;48.810;9.204;2024-01-15T11:37:06;97457.97;;;5.42;72.00
13765;BME280;6953;48.810;9.204;2024-01-15T11:42:01;97176.13;;;3.88;72.22
13765;BME280;6953;48.810;9.204;2024-01-15T11:44:28;97467.66;;;5.56;73.18
13765;BME280;6953;48.810;9.204;2024-01-15T11:47:04;97471.72;;;5.44;73.45
13765;BME280;6953;48.810;9.204;2024-01-15T11:52:16;97452.97;;;5.06;74.14
13765;BME280;6953;48.810;9.204;2024-01-15T11:54:48;97285.13;;;4.03;74.12
13765;BME280;6953;48.810;9.204;2024-01-15T11:57:27;97451.59;;;4.99;75.33
13765;BME280;6953;48.810;9.204;2024-01-15T11:59:57;97391.50;;;4.55;75.21
13765;BME280;6953;48.810;9.204;2024-01-15T12:02:23;97440.06;;;4.87;75.81
13765;BME280;6953;48.810;9.204;2024-01-15T12:04:48;97463.69;;;4.83;76.34
13765;BME280;6953;48.810;9.204;2024-01-15T12:07:13;97254.09;;;3.49;78.14
13765;BME280;6953;48.810;9.204;2024-01-15T12:09:43;97452.03;;;4.73;79.34
13765;BME280;6953;48.810;9.204;2024-01-15T12:12:13;97456.41;;;4.72;78.71
13765;BME280;6953;48.810;9.204;2024-01-15T12:14:42;97474.50;;;4.74;79.37
13765;BME280;6953;48.810;9.204;2024-01-15T12:17:08;97441.78;;;4.53;77.80
13765;BME280;6953;48.810;9.204;2024-01-15T12:19:34;97406.34;;;4.35;78.54
13765;BME280;6953;48.810;9.204;2024-01-15T12:21:59;97397.50;;;4.39;78.46
13765;BME280;6953;48.810;9.204;2024-01-15T12:24:24;97470.59;;;4.82;78.54
13765;BME280;6953;48.810;9.204;2024-01-15T12:26:50;97464.50;;;4.83;78.78
13765;BME280;6953;48.810;9.204;2024-01-15T12:29:17;97463.19;;;4.75;80.50
13765;BME280;6953;48.810;9.204;2024-01-15T12:31:43;97299.00;;;3.50;80.85
13765;BME280;6953;48.810;9.204;2024-01-15T12:34:08;97481.47;;;4.56;81.93
13765;BME280;6953;48.810;9.204;2024-01-15T12:36:33;97183.34;;;2.95;82.10
13765;BME280;6953;48.810;9.204;2024-01-15T12:38:59;97248.41;;;3.24;82.11
13765;BME280;6953;48.810;9.204;2024-01-15T12:41:25;97451.50;;;4.49;82.09
13765;BME280;6953;48.810;9.204;2024-01-15T12:43:50;97486.19;;;4.65;83.13
13765;BME280;6953;48.810;9.204;2024-01-15T12:46:15;97487.97;;;4.65;82.63
13765;BME280;6953;48.810;9.204;2024-01-15T12:48:41;97445.81;;;4.41;83.35
13765;BME280;6953;48.810;9.204;2024-01-15T12:51:07;97483.06;;;4.59;84.54
13765;BME280;6953;48.810;9.204;2024-01-15T12:53:33;97422.72;;;4.18;85.04
13765;BME280;6953;48.810;9.204;2024-01-15T12:55:58;97481.88;;;4.47;86.34
13765;BME280;6953;48.810;9.204;2024-01-15T12:58:23;97304.28;;;3.30;85.60
13765;BME280;6953;48.810;9.204;2024-01-15T13:00:48;97500.19;;;4.44;86.77
13765;BME280;6953;48.810;9.204;2024-01-15T13:03:14;97480.81;;;4.34;87.23
13765;BME280;6953;48.810;9.204;2024-01-15T13:05:41;97153.63;;;2.30;87.56
13765;BME280;6953;48.810;9.204;2024-01-15T13:08:06;97471.84;;;4.23;87.16
13765;BME280;6953;48.810;9.204;2024-01-15T13:10:32;97521.22;;;4.57;87.90
13765;BME280;6953;48.810;9.204;2024-01-15T13:12:57;97511.38;;;4.63;87.34
13765;BME280;6953;48.810;9.204;2024-01-15T13:15:23;97226.78;;;2.89;87.12
13765;BME280;6953;48.810;9.204;2024-01-15T13:17:48;97328.22;;;3.16;87.75
13765;BME280;6953;48.810;9.204;2024-01-15T13:20:13;97316.06;;;3.18;88.95
13765;BME280;6953;48.810;9.204;2024-01-15T13:22:39;97528.34;;;4.35;88.18
13765;BME280;6953;48.810;9.204;2024-01-15T13:25:05;97532.00;;;4.31;88.70
13765;BME280;6953;48.810;9.204;2024-01-15T13:27:32;97445.22;;;3.83;89.45